createdAt,value
2023-03-10T00:00:21.675Z,95373.91
2023-03-10T00:03:23.165Z,95376.78
2023-03-10T00:06:26.556Z,95385.09
2023-03-10T00:09:28.027Z,95394.84
2023-03-10T00:12:29.598Z,95394.00
2023-03-10T00:15:31.741Z,95419.78
2023-03-10T00:18:33.651Z,95392.19
2023-03-10T00:21:35.090Z,95400.84
2023-03-10T00:24:36.548Z,95397.53
2023-03-10T00:27:38.716Z,95382.13
2023-03-10T00:30:40.240Z,95375.00
2023-03-10T00:33:44.406Z,95391.88
2023-03-10T00:36:45.903Z,95360.22
2023-03-10T00:39:51.262Z,95357.09
2023-03-10T00:42:52.793Z,95362.63
2023-03-10T00:45:54.588Z,95361.75
2023-03-10T00:48:56.612Z,95360.84
2023-03-10T00:51:58.138Z,95363.72
2023-03-10T00:54:59.760Z,95375.38
2023-03-10T00:58:01.244Z,95370.78
2023-03-10T01:01:04.825Z,95368.53
2023-03-10T01:04:13.790Z,95368.53
2023-03-10T01:07:15.457Z,95361.97
2023-03-10T01:10:18.135Z,95349.06
2023-03-10T01:13:20.121Z,95343.19
2023-03-10T01:16:21.720Z,95349.91
2023-03-10T01:19:23.181Z,95341.03
2023-03-10T01:22:24.749Z,95325.19
2023-03-10T01:25:27.067Z,95327.31
2023-03-10T01:28:28.542Z,95337.75
2023-03-10T01:31:31.181Z,95329.81
2023-03-10T01:34:33.023Z,95321.66
2023-03-10T01:37:34.601Z,95299.09
2023-03-10T01:40:37.770Z,95313.69
2023-03-10T01:43:44.215Z,95306.00
2023-03-10T01:46:48.654Z,95285.75
2023-03-10T01:50:05.046Z,95305.44
2023-03-10T01:53:07.584Z,95299.59
2023-03-10T01:56:09.232Z,95295.22
2023-03-10T01:59:11.306Z,95296.94
2023-03-10T02:02:13.357Z,95295.53
2023-03-10T02:05:15.930Z,95284.38
2023-03-10T02:08:18.385Z,95299.50
2023-03-10T02:11:20.670Z,95276.47
2023-03-10T02:14:23.533Z,95282.28
2023-03-10T02:17:27.286Z,95285.03
2023-03-10T02:20:50.079Z,95263.84
2023-03-10T02:24:09.281Z,95320.38
2023-03-10T02:27:44.067Z,95270.47
2023-03-10T02:30:49.712Z,95268.63
2023-03-10T02:33:51.829Z,95249.16
2023-03-10T02:36:53.706Z,95241.44
2023-03-10T02:39:55.396Z,95237.25
2023-03-10T02:42:57.945Z,95267.94
2023-03-10T02:46:02.782Z,95256.50
2023-03-10T02:49:07.235Z,95241.13
2023-03-10T02:52:40.572Z,95245.88
2023-03-10T02:55:42.691Z,95246.63
2023-03-10T02:58:44.399Z,95231.72
2023-03-10T03:01:45.943Z,95190.91
2023-03-10T03:04:47.879Z,95231.44
2023-03-10T03:07:49.857Z,95225.94
2023-03-10T03:10:53.116Z,95211.25
2023-03-10T03:13:54.987Z,95220.06
2023-03-10T03:16:57.618Z,95209.41
2023-03-10T03:19:59.448Z,95206.72
2023-03-10T03:23:01.573Z,95195.78
2023-03-10T03:26:03.853Z,95191.97
2023-03-10T03:29:06.011Z,95180.50
2023-03-10T03:32:10.308Z,95166.16
2023-03-10T03:35:16.740Z,95165.88
2023-03-10T03:38:18.777Z,95165.06
2023-03-10T03:41:21.276Z,95153.59
2023-03-10T03:44:23.032Z,95156.59
2023-03-10T03:47:25.583Z,95150.44
2023-03-10T03:50:27.302Z,95139.25
2023-03-10T03:53:33.625Z,95125.13
2023-03-10T03:56:35.415Z,95121.38
2023-03-10T03:59:37.382Z,95121.09
2023-03-10T04:02:40.095Z,95110.94
2023-03-10T04:05:44.821Z,95109.41
2023-03-10T04:08:50.477Z,95117.66
2023-03-10T04:11:53.135Z,95114.72
2023-03-10T04:14:55.626Z,95104.88
2023-03-10T04:17:57.912Z,95104.59
2023-03-10T04:20:59.846Z,95097.38
2023-03-10T04:24:02.929Z,95085.94
2023-03-10T04:27:09.566Z,95077.38
2023-03-10T04:30:13.846Z,95088.06
2023-03-10T04:33:19.130Z,95090.19
2023-03-10T04:36:22.635Z,95087.78
2023-03-10T04:39:28.675Z,95079.72
2023-03-10T04:42:30.224Z,95062.66
2023-03-10T04:45:31.961Z,95062.13
2023-03-10T04:48:34.172Z,95081.34
2023-03-10T04:51:35.934Z,95071.94
2023-03-10T04:54:37.625Z,95081.56
2023-03-10T04:57:39.864Z,95076.50
2023-03-10T05:00:56.505Z,95063.44
2023-03-10T05:04:05.406Z,95049.84
2023-03-10T05:07:08.271Z,95051.72
2023-03-10T05:10:13.682Z,95045.91
2023-03-10T05:13:15.931Z,95036.59
2023-03-10T05:16:20.826Z,95037.34
2023-03-10T05:19:23.925Z,95029.88
2023-03-10T05:22:26.437Z,95034.69
2023-03-10T05:25:28.458Z,95035.25
2023-03-10T05:28:30.049Z,95015.00
2023-03-10T05:31:32.081Z,95035.50
2023-03-10T05:34:39.481Z,95031.25
2023-03-10T05:37:43.446Z,95005.66
2023-03-10T05:40:45.637Z,95016.06
2023-03-10T05:43:47.833Z,95005.66
2023-03-10T05:46:51.319Z,94990.97
2023-03-10T05:49:54.472Z,95004.56
2023-03-10T05:52:56.279Z,94980.56
2023-03-10T05:55:58.729Z,94988.59
2023-03-10T05:59:00.910Z,94969.66
2023-03-10T06:02:05.660Z,94970.97
2023-03-10T06:05:11.299Z,94964.03
2023-03-10T06:08:13.048Z,94966.16
2023-03-10T06:11:14.725Z,94961.06
2023-03-10T06:14:16.274Z,94959.50
2023-03-10T06:17:19.724Z,94971.47
2023-03-10T06:20:21.390Z,94971.47
2023-03-10T06:23:24.511Z,94988.00
2023-03-10T06:26:26.054Z,94981.59
2023-03-10T06:29:27.508Z,94977.84
2023-03-10T06:32:29.069Z,94962.66
2023-03-10T06:35:31.503Z,94957.28
2023-03-10T06:38:33.057Z,94971.19
2023-03-10T06:41:37.484Z,94992.53
2023-03-10T06:44:42.363Z,95017.94
2023-03-10T06:47:44.668Z,95000.25
2023-03-10T06:50:49.813Z,95018.31
2023-03-10T06:53:51.277Z,95018.53
2023-03-10T06:56:52.956Z,95014.00
2023-03-10T06:59:55.123Z,95023.72
2023-03-10T07:02:56.689Z,95016.28
2023-03-10T07:05:59.635Z,95019.19
2023-03-10T07:09:01.216Z,95021.34
2023-03-10T07:12:02.643Z,95024.63
2023-03-10T07:15:04.582Z,95053.91
2023-03-10T07:18:06.168Z,95058.13
2023-03-10T07:21:13.276Z,95066.16
2023-03-10T07:24:15.788Z,95066.69
2023-03-10T07:27:17.603Z,95071.84
2023-03-10T07:30:19.347Z,95064.72
2023-03-10T07:33:21.016Z,95061.19
2023-03-10T07:36:23.511Z,95081.50
2023-03-10T07:39:25.196Z,95082.59
2023-03-10T07:42:26.675Z,95096.06
2023-03-10T07:45:30.747Z,95085.84
2023-03-10T07:48:32.216Z,95142.72
2023-03-10T07:51:34.130Z,95111.72
2023-03-10T07:54:35.599Z,95092.56
2023-03-10T07:57:37.042Z,95105.91
2023-03-10T08:00:38.727Z,95115.19
2023-03-10T08:03:40.825Z,95116.22
2023-03-10T08:06:42.313Z,95092.78
2023-03-10T08:09:49.756Z,95118.63
2023-03-10T08:12:51.206Z,95115.16
2023-03-10T08:15:52.880Z,95101.28
2023-03-10T08:18:54.812Z,95125.28
2023-03-10T08:22:02.073Z,95132.97
2023-03-10T08:25:03.841Z,95135.09
2023-03-10T08:28:05.295Z,95131.34
2023-03-10T08:31:09.858Z,95141.72
2023-03-10T08:34:11.479Z,95137.69
2023-03-10T08:37:12.971Z,95148.06
2023-03-10T08:40:16.149Z,95152.03
2023-03-10T08:43:17.733Z,95142.28
2023-03-10T08:46:20.824Z,95166.53
2023-03-10T08:49:22.438Z,95150.47
2023-03-10T08:52:24.573Z,95155.78
2023-03-10T08:55:26.076Z,95166.78
2023-03-10T08:58:27.657Z,95150.00
2023-03-10T09:01:35.313Z,95155.59
2023-03-10T09:04:36.841Z,95160.16
2023-03-10T09:07:38.520Z,95163.84
2023-03-10T09:10:41.125Z,95171.31
2023-03-10T09:13:42.825Z,95184.59
2023-03-10T09:16:45.052Z,95169.13
2023-03-10T09:19:46.876Z,95153.50
2023-03-10T09:22:48.463Z,95165.06
2023-03-10T09:25:50.065Z,95158.13
2023-03-10T09:28:51.524Z,95188.94
2023-03-10T09:31:53.236Z,95179.16
2023-03-10T09:34:55.019Z,95159.66
2023-03-10T09:37:56.549Z,95168.72
2023-03-10T09:41:37.082Z,95174.88
2023-03-10T09:44:46.355Z,95174.22
2023-03-10T09:47:53.159Z,95151.94
2023-03-10T09:50:56.603Z,95175.72
2023-03-10T09:54:16.858Z,95189.69
2023-03-10T09:57:21.990Z,95172.78
2023-03-10T10:00:44.804Z,95185.91
2023-03-10T10:03:53.107Z,95169.91
2023-03-10T10:06:57.332Z,95185.25
2023-03-10T10:10:06.006Z,95199.31
2023-03-10T10:13:15.870Z,95219.19
2023-03-10T10:16:42.352Z,95203.59
2023-03-10T10:19:47.813Z,95215.63
2023-03-10T10:22:49.655Z,95200.53
2023-03-10T10:25:51.551Z,95193.19
2023-03-10T10:29:01.280Z,95267.16
2023-03-10T10:32:02.813Z,95228.13
2023-03-10T10:35:15.838Z,95237.34
2023-03-10T10:38:24.779Z,95234.53
2023-03-10T10:41:29.295Z,95240.22
2023-03-10T10:44:40.758Z,95237.63
2023-03-10T10:47:51.005Z,95217.13
2023-03-10T10:50:54.416Z,95241.84
2023-03-10T10:54:02.614Z,95240.72
2023-03-10T10:57:06.152Z,95241.84
2023-03-10T11:00:26.569Z,95239.38
2023-03-10T11:03:35.378Z,95257.66
2023-03-10T11:06:38.091Z,95274.50
2023-03-10T11:09:39.605Z,95267.84
2023-03-10T11:12:56.330Z,95255.22
2023-03-10T11:16:07.990Z,95264.59
2023-03-10T11:19:16.424Z,95268.31
2023-03-10T11:22:43.374Z,95268.50
2023-03-10T11:26:06.482Z,95279.59
2023-03-10T11:29:33.660Z,95274.19
2023-03-10T11:32:51.975Z,95285.84
2023-03-10T11:36:00.947Z,95287.44
2023-03-10T11:39:29.953Z,95294.69
2023-03-10T11:42:34.272Z,95293.59
2023-03-10T11:45:54.334Z,95284.09
2023-03-10T11:49:10.431Z,95286.97
2023-03-10T11:52:18.875Z,95300.50
2023-03-10T11:55:21.935Z,95297.44
2023-03-10T11:58:31.866Z,95302.56
2023-03-10T12:01:40.854Z,95298.59
2023-03-10T12:04:50.725Z,95299.91
2023-03-10T12:07:55.467Z,95303.38
2023-03-10T12:11:00.454Z,95307.44
2023-03-10T12:14:02.762Z,95295.16
2023-03-10T12:17:05.558Z,95299.63
2023-03-10T12:20:13.186Z,95278.84
2023-03-10T12:23:42.472Z,95301.47
2023-03-10T12:26:45.096Z,95278.50
2023-03-10T12:29:46.806Z,95321.97
2023-03-10T12:32:48.471Z,95317.28
2023-03-10T12:35:54.085Z,95294.59
2023-03-10T12:39:00.153Z,95282.16
2023-03-10T12:42:03.386Z,95300.41
2023-03-10T12:45:21.416Z,95294.28
2023-03-10T12:48:23.305Z,95289.13
2023-03-10T12:51:28.499Z,95299.28
2023-03-10T12:54:36.964Z,95312.63
2023-03-10T12:58:04.632Z,95328.56
2023-03-10T13:01:13.351Z,95295.00
2023-03-10T13:04:21.160Z,95331.59
2023-03-10T13:07:22.646Z,95323.22
2023-03-10T13:10:27.286Z,95352.00
2023-03-10T13:13:33.434Z,95355.66
2023-03-10T13:16:36.519Z,95330.94
2023-03-10T13:19:38.713Z,95338.28
2023-03-10T13:22:43.409Z,95350.56
2023-03-10T13:25:56.813Z,95418.72
2023-03-10T13:29:00.913Z,95357.69
2023-03-10T13:32:02.511Z,95353.16
2023-03-10T13:35:23.897Z,95382.72
2023-03-10T13:38:25.429Z,95354.66
2023-03-10T13:41:27.209Z,95373.53
2023-03-10T13:44:33.783Z,95346.56
2023-03-10T13:47:42.976Z,95393.44
2023-03-10T13:50:44.412Z,95380.53
2023-03-10T13:53:48.368Z,95384.16
2023-03-10T13:56:52.467Z,95377.63
2023-03-10T13:59:56.861Z,95418.41
2023-03-10T14:02:58.479Z,95425.63
2023-03-10T14:05:59.916Z,95419.03
2023-03-10T14:09:24.883Z,95438.59
2023-03-10T14:12:48.342Z,95438.09
2023-03-10T14:15:54.179Z,95473.00
2023-03-10T14:18:55.771Z,95520.47
2023-03-10T14:22:01.926Z,95498.00
2023-03-10T14:25:11.458Z,95511.13
2023-03-10T14:31:25.056Z,95488.34
2023-03-10T14:34:26.596Z,95519.47
2023-03-10T14:37:28.099Z,95492.22
2023-03-10T14:40:29.726Z,95535.56
2023-03-10T14:43:31.442Z,95486.53
2023-03-10T14:46:35.051Z,95494.00
2023-03-10T14:49:36.847Z,95508.81
2023-03-10T14:52:38.527Z,95523.06
2023-03-10T14:55:41.684Z,95547.25
2023-03-10T14:58:49.284Z,95572.00
2023-03-10T15:01:50.929Z,95563.53
2023-03-10T15:04:52.479Z,95563.06
2023-03-10T15:07:54.082Z,95567.84
2023-03-10T15:10:56.026Z,95563.28
2023-03-10T15:13:58.011Z,95529.09
2023-03-10T15:16:59.526Z,95570.31
2023-03-10T15:20:01.021Z,95539.63
2023-03-10T15:23:02.442Z,95567.13
2023-03-10T15:26:09.448Z,95594.34
2023-03-10T15:29:15.827Z,95587.13
2023-03-10T15:32:46.100Z,95574.72
2023-03-10T15:35:47.640Z,95587.41
2023-03-10T15:38:49.106Z,95596.34
2023-03-10T15:41:50.599Z,95607.56
2023-03-10T15:44:52.161Z,95629.41
2023-03-10T15:47:53.696Z,95622.28
2023-03-10T15:50:55.179Z,95663.41
2023-03-10T15:53:58.809Z,95667.31
2023-03-10T15:57:00.365Z,95695.00
2023-03-10T16:00:01.890Z,95686.13
2023-03-10T16:03:03.459Z,95679.19
2023-03-10T16:06:05.659Z,95676.44
2023-03-10T16:09:09.021Z,95680.25
2023-03-10T16:12:10.637Z,95664.13
2023-03-10T16:15:23.702Z,95647.63
2023-03-10T16:18:25.213Z,95650.41
2023-03-10T16:21:27.830Z,95664.56
2023-03-10T16:24:29.314Z,95715.44
2023-03-10T16:27:30.891Z,95694.56
2023-03-10T16:30:34.884Z,95681.56
2023-03-10T16:33:36.557Z,95693.22
2023-03-10T16:36:38.042Z,95691.50
2023-03-10T16:39:39.504Z,95702.75
2023-03-10T16:42:45.270Z,95693.03
2023-03-10T16:45:48.870Z,95679.41
2023-03-10T16:48:50.432Z,95691.28
2023-03-10T16:51:51.973Z,95691.53
2023-03-10T16:54:57.301Z,95710.59
2023-03-10T16:57:58.889Z,95710.81
2023-03-10T17:01:01.007Z,95703.22
2023-03-10T17:04:02.570Z,95700.19
2023-03-10T17:07:04.059Z,95708.38
2023-03-10T17:10:06.072Z,95706.19
2023-03-10T17:13:07.541Z,95665.06
2023-03-10T17:16:12.589Z,95686.03
2023-03-10T17:19:19.463Z,95702.22
2023-03-10T17:22:21.070Z,95734.59
2023-03-10T17:25:22.686Z,95745.38
2023-03-10T17:28:24.435Z,95749.41
2023-03-10T17:31:27.518Z,95769.28
2023-03-10T17:34:29.344Z,95764.03
2023-03-10T17:37:30.842Z,95760.34
2023-03-10T17:40:33.743Z,95779.50
2023-03-10T17:43:35.225Z,95797.09
2023-03-10T17:46:36.968Z,95759.88
2023-03-10T17:49:38.623Z,95773.94
2023-03-10T17:52:40.108Z,95751.19
2023-03-10T17:55:41.704Z,95729.91
2023-03-10T17:58:43.608Z,95737.38
2023-03-10T18:01:45.869Z,95735.22
2023-03-10T18:04:48.574Z,95730.28
2023-03-10T18:07:53.533Z,95751.56
2023-03-10T18:11:03.685Z,95727.56
2023-03-10T18:14:05.991Z,95754.22
2023-03-10T18:17:07.481Z,95756.06
2023-03-10T18:20:13.741Z,95747.44
2023-03-10T18:23:17.327Z,95759.13
2023-03-10T18:26:30.274Z,95766.28
2023-03-10T18:29:31.741Z,95776.19
2023-03-10T18:32:34.159Z,95804.56
2023-03-10T18:35:39.691Z,95788.56
2023-03-10T18:38:41.298Z,95797.91
2023-03-10T18:41:42.841Z,95823.66
2023-03-10T18:44:46.434Z,95849.66
2023-03-10T18:47:48.123Z,95844.72
2023-03-10T18:50:49.646Z,95863.31
2023-03-10T18:53:51.663Z,95875.69
2023-03-10T18:56:53.225Z,95862.38
2023-03-10T18:59:54.687Z,95894.47
2023-03-10T19:02:56.269Z,95906.53
2023-03-10T19:05:58.200Z,95914.25
2023-03-10T19:09:01.319Z,95944.97
2023-03-10T19:12:02.838Z,95934.34
2023-03-10T19:15:08.807Z,95958.13
2023-03-10T19:18:10.440Z,95962.47
2023-03-10T19:21:13.024Z,95979.56
2023-03-10T19:24:14.512Z,95979.47
2023-03-10T19:27:16.052Z,95975.41
2023-03-10T19:30:22.352Z,95980.13
2023-03-10T19:33:23.925Z,96002.16
2023-03-10T19:36:26.567Z,96007.81
2023-03-10T19:39:28.066Z,96013.19
2023-03-10T19:42:29.545Z,96011.91
2023-03-10T19:45:31.096Z,96023.59
2023-03-10T19:48:32.824Z,96034.47
2023-03-10T19:51:34.452Z,96039.66
2023-03-10T19:54:36.125Z,96035.91
2023-03-10T19:57:37.644Z,96042.94
2023-03-10T20:00:39.158Z,96027.97
2023-03-10T20:03:40.863Z,96035.22
2023-03-10T20:06:42.381Z,96047.41
2023-03-10T20:09:43.922Z,96062.50
2023-03-10T20:12:47.005Z,96046.13
2023-03-10T20:15:48.482Z,96079.06
2023-03-10T20:18:50.235Z,96062.84
2023-03-10T20:21:52.168Z,96077.38
2023-03-10T20:24:53.715Z,96089.75
2023-03-10T20:27:55.214Z,96082.88
2023-03-10T20:30:56.690Z,96103.53
2023-03-10T20:33:58.234Z,96100.09
2023-03-10T20:36:59.686Z,96097.00
2023-03-10T20:40:02.802Z,96112.47
2023-03-10T20:43:05.320Z,96105.34
2023-03-10T20:46:07.762Z,96107.94
2023-03-10T20:49:10.043Z,96098.03
2023-03-10T20:52:11.977Z,96091.69
2023-03-10T20:55:22.961Z,96092.00
2023-03-10T20:58:24.509Z,96098.41
2023-03-10T21:01:27.208Z,96107.13
2023-03-10T21:04:28.879Z,96109.59
2023-03-10T21:07:30.466Z,96126.75
2023-03-10T21:10:32.155Z,96119.81
2023-03-10T21:13:33.598Z,96131.69
2023-03-10T21:16:41.408Z,96132.59
2023-03-10T21:19:42.931Z,96177.50
2023-03-10T21:22:44.576Z,96155.25
2023-03-10T21:25:46.125Z,96180.97
2023-03-10T21:28:48.176Z,96146.09
2023-03-10T21:31:49.587Z,96165.69
2023-03-10T21:34:51.100Z,96159.13
2023-03-10T21:37:52.671Z,96161.66
2023-03-10T21:40:54.673Z,96179.56
2023-03-10T21:43:58.477Z,96176.41
2023-03-10T21:47:00.221Z,96170.56
2023-03-10T21:50:02.046Z,96180.19
2023-03-10T21:53:04.898Z,96177.69
2023-03-10T21:56:07.291Z,96210.50
2023-03-10T21:59:08.791Z,96204.59
2023-03-10T22:02:25.260Z,96216.16
2023-03-10T22:05:26.782Z,96202.69
2023-03-10T22:08:28.240Z,96188.41
2023-03-10T22:11:29.833Z,96180.28
2023-03-10T22:14:31.402Z,96176.50
2023-03-10T22:17:33.538Z,96190.19
2023-03-10T22:20:35.213Z,96186.84
2023-03-10T22:23:36.722Z,96193.41
2023-03-10T22:26:38.219Z,96205.66
2023-03-10T22:29:39.836Z,96199.59
2023-03-10T22:32:41.795Z,96217.63
2023-03-10T22:35:45.165Z,96216.19
2023-03-10T22:38:46.637Z,96226.97
2023-03-10T22:41:48.147Z,96248.97
2023-03-10T22:44:49.612Z,96235.88
2023-03-10T22:47:54.051Z,96241.59
2023-03-10T22:50:55.530Z,96233.38
2023-03-10T22:53:57.009Z,96248.25
2023-03-10T22:56:58.641Z,96245.97
2023-03-10T23:00:00.098Z,96251.03
2023-03-10T23:03:02.328Z,96248.84
2023-03-10T23:06:05.905Z,96245.19
2023-03-10T23:09:10.643Z,96218.53
2023-03-10T23:12:12.218Z,96231.19
2023-03-10T23:15:24.861Z,96232.34
2023-03-10T23:18:26.919Z,96238.22
2023-03-10T23:21:28.467Z,96249.31
2023-03-10T23:24:29.922Z,96243.19
2023-03-10T23:27:31.381Z,96229.31
2023-03-10T23:30:34.693Z,96217.44
2023-03-10T23:33:36.203Z,96236.25
2023-03-10T23:36:37.698Z,96245.63
2023-03-10T23:39:39.205Z,96262.38
2023-03-10T23:42:42.545Z,96255.81
2023-03-10T23:45:44.668Z,96244.34
2023-03-10T23:48:46.181Z,96258.47
2023-03-10T23:51:48.901Z,96252.56
2023-03-10T23:54:50.345Z,96250.13
2023-03-10T23:57:51.811Z,96240.78
